sensor_id;sensor_type;location;lat;lon;timestamp;pressure;altitude;pressure_sealevel;temperature;humidity
75221;BME280;63802;53.232;6.570;2023-03-14T00:01:26;98709.69;;;8.95;79.25
75221;BME280;63802;53.232;6.570;2023-03-14T00:03:52;98715.44;;;9.04;79.23
75221;BME280;63802;53.232;6.570;2023-03-14T00:06:18;98708.44;;;9.03;79.21
75221;BME280;63802;53.232;6.570;2023-03-14T00:08:44;98688.28;;;9.01;79.14
75221;BME280;63802;53.232;6.570;2023-03-14T00:11:16;98702.22;;;9.06;78.96
75221;BME280;63802;53.232;6.570;2023-03-14T00:13:42;98699.00;;;9.15;79.45
75221;BME280;63802;53.232;6.570;2023-03-14T00:16:11;98691.25;;;9.13;79.17
75221;BME280;63802;53.232;6.570;2023-03-14T00:18:37;98679.66;;;9.06;79.42
75221;BME280;63802;53.232;6.570;2023-03-14T00:21:04;98685.81;;;9.13;79.44
75221;BME280;63802;53.232;6.570;2023-03-14T00:23:32;98688.81;;;9.22;79.36
75221;BME280;63802;53.232;6.570;2023-03-14T00:26:02;98678.22;;;9.31;79.08
75221;BME280;63802;53.232;6.570;2023-03-14T00:28:28;98674.06;;;9.23;78.97
75221;BME280;63802;53.232;6.570;2023-03-14T00:30:54;98676.78;;;9.23;78.59
75221;BME280;63802;53.232;6.570;2023-03-14T00:33:20;98672.41;;;9.29;78.94
75221;BME280;63802;53.232;6.570;2023-03-14T00:36:00;98686.38;;;9.31;78.86
75221;BME280;63802;53.232;6.570;2023-03-14T00:38:26;98682.84;;;9.34;78.56
75221;BME280;63802;53.232;6.570;2023-03-14T00:40:55;98663.88;;;9.27;78.43
75221;BME280;63802;53.232;6.570;2023-03-14T00:43:21;98666.97;;;9.29;78.53
75221;BME280;63802;53.232;6.570;2023-03-14T00:45:48;98666.34;;;9.15;78.84
75221;BME280;63802;53.232;6.570;2023-03-14T00:48:19;98674.81;;;9.24;78.92
75221;BME280;63802;53.232;6.570;2023-03-14T00:50:45;98640.88;;;8.98;78.93
75221;BME280;63802;53.232;6.570;2023-03-14T00:53:11;98684.50;;;9.28;78.96
75221;BME280;63802;53.232;6.570;2023-03-14T00:55:38;98688.38;;;9.27;78.98
75221;BME280;63802;53.232;6.570;2023-03-14T00:58:04;98670.94;;;9.21;79.04
75221;BME280;63802;53.232;6.570;2023-03-14T01:00:29;98661.69;;;9.15;78.98
75221;BME280;63802;53.232;6.570;2023-03-14T01:02:55;98680.31;;;9.17;79.15
75221;BME280;63802;53.232;6.570;2023-03-14T01:05:22;98669.44;;;9.17;79.26
75221;BME280;63802;53.232;6.570;2023-03-14T01:07:47;98657.88;;;9.09;79.67
75221;BME280;63802;53.232;6.570;2023-03-14T01:10:13;98664.06;;;9.13;79.54
75221;BME280;63802;53.232;6.570;2023-03-14T01:12:38;98668.00;;;9.09;79.93
75221;BME280;63802;53.232;6.570;2023-03-14T01:15:05;98661.91;;;8.94;80.15
75221;BME280;63802;53.232;6.570;2023-03-14T01:17:31;98656.06;;;8.96;80.15
75221;BME280;63802;53.232;6.570;2023-03-14T01:19:56;98643.22;;;9.00;80.19
75221;BME280;63802;53.232;6.570;2023-03-14T01:22:22;98676.78;;;9.23;80.15
75221;BME280;63802;53.232;6.570;2023-03-14T01:24:50;98650.72;;;9.22;80.23
75221;BME280;63802;53.232;6.570;2023-03-14T01:27:15;98665.72;;;9.37;80.20
75221;BME280;63802;53.232;6.570;2023-03-14T01:29:41;98663.00;;;9.37;80.19
75221;BME280;63802;53.232;6.570;2023-03-14T01:32:06;98664.84;;;9.44;80.07
75221;BME280;63802;53.232;6.570;2023-03-14T01:34:32;98674.88;;;9.51;80.05
75221;BME280;63802;53.232;6.570;2023-03-14T01:36:57;98654.03;;;9.40;79.62
75221;BME280;63802;53.232;6.570;2023-03-14T01:39:23;98671.72;;;9.56;79.54
75221;BME280;63802;53.232;6.570;2023-03-14T01:41:48;98674.78;;;9.58;79.65
75221;BME280;63802;53.232;6.570;2023-03-14T01:44:14;98659.38;;;9.48;79.72
75221;BME280;63802;53.232;6.570;2023-03-14T01:46:44;98675.19;;;9.60;79.83
75221;BME280;63802;53.232;6.570;2023-03-14T01:49:42;98665.97;;;9.50;79.59
75221;BME280;63802;53.232;6.570;2023-03-14T01:52:33;98670.91;;;9.59;79.49
75221;BME280;63802;53.232;6.570;2023-03-14T01:55:19;98675.56;;;9.58;79.82
75221;BME280;63802;53.232;6.570;2023-03-14T01:57:56;98646.22;;;9.42;79.74
75221;BME280;63802;53.232;6.570;2023-03-14T02:00:26;98660.38;;;9.61;79.80
75221;BME280;63802;53.232;6.570;2023-03-14T02:02:59;98652.03;;;9.44;79.99
75221;BME280;63802;53.232;6.570;2023-03-14T02:05:30;98658.28;;;9.41;80.13
75221;BME280;63802;53.232;6.570;2023-03-14T02:07:59;98669.88;;;9.45;80.66
75221;BME280;63802;53.232;6.570;2023-03-14T02:10:34;98645.56;;;9.31;81.07
75221;BME280;63802;53.232;6.570;2023-03-14T02:13:03;98621.25;;;9.17;81.22
75221;BME280;63802;53.232;6.570;2023-03-14T02:15:30;98644.03;;;9.30;81.18
75221;BME280;63802;53.232;6.570;2023-03-14T02:17:56;98647.16;;;9.29;81.58
75221;BME280;63802;53.232;6.570;2023-03-14T02:20:27;98651.78;;;9.32;81.87
75221;BME280;63802;53.232;6.570;2023-03-14T02:22:55;98645.19;;;9.29;81.80
75221;BME280;63802;53.232;6.570;2023-03-14T02:25:41;98645.19;;;9.29;82.06
75221;BME280;63802;53.232;6.570;2023-03-14T02:28:11;98648.38;;;9.24;82.07
75221;BME280;63802;53.232;6.570;2023-03-14T02:30:38;98643.38;;;9.19;82.67
75221;BME280;63802;53.232;6.570;2023-03-14T02:33:08;98643.81;;;9.14;82.50
75221;BME280;63802;53.232;6.570;2023-03-14T02:35:57;98619.41;;;9.07;82.57
75221;BME280;63802;53.232;6.570;2023-03-14T02:38:42;98624.03;;;9.10;82.55
75221;BME280;63802;53.232;6.570;2023-03-14T02:41:11;98637.56;;;9.17;82.51
75221;BME280;63802;53.232;6.570;2023-03-14T02:43:36;98617.91;;;9.03;82.73
75221;BME280;63802;53.232;6.570;2023-03-14T02:46:03;98619.41;;;9.07;83.17
75221;BME280;63802;53.232;6.570;2023-03-14T02:48:41;98635.00;;;9.03;83.93
75221;BME280;63802;53.232;6.570;2023-03-14T02:51:08;98622.34;;;8.90;84.58
75221;BME280;63802;53.232;6.570;2023-03-14T02:53:37;98624.28;;;8.89;84.98
75221;BME280;63802;53.232;6.570;2023-03-14T02:56:03;98605.75;;;8.77;85.17
75221;BME280;63802;53.232;6.570;2023-03-14T02:58:30;98609.25;;;8.77;85.36
75221;BME280;63802;53.232;6.570;2023-03-14T03:00:56;98616.19;;;8.82;85.82
75221;BME280;63802;53.232;6.570;2023-03-14T03:03:22;98609.28;;;8.74;85.85
75221;BME280;63802;53.232;6.570;2023-03-14T03:05:51;98613.56;;;8.75;86.05
75221;BME280;63802;53.232;6.570;2023-03-14T03:08:19;98619.34;;;8.77;86.40
75221;BME280;63802;53.232;6.570;2023-03-14T03:10:45;98630.97;;;8.81;86.72
75221;BME280;63802;53.232;6.570;2023-03-14T03:13:11;98631.81;;;8.74;87.02
75221;BME280;63802;53.232;6.570;2023-03-14T03:15:36;98614.06;;;8.63;87.81
75221;BME280;63802;53.232;6.570;2023-03-14T03:18:02;98617.16;;;8.65;87.78
75221;BME280;63802;53.232;6.570;2023-03-14T03:20:27;98607.19;;;8.51;87.99
75221;BME280;63802;53.232;6.570;2023-03-14T03:22:53;98603.31;;;8.49;88.85
75221;BME280;63802;53.232;6.570;2023-03-14T03:25:19;98625.00;;;8.56;88.67
75221;BME280;63802;53.232;6.570;2023-03-14T03:27:44;98618.88;;;8.45;89.31
75221;BME280;63802;53.232;6.570;2023-03-14T03:30:12;98615.00;;;8.42;90.01
75221;BME280;63802;53.232;6.570;2023-03-14T03:32:38;98629.06;;;8.34;90.18
75221;BME280;63802;53.232;6.570;2023-03-14T03:35:04;98607.44;;;8.20;90.76
75221;BME280;63802;53.232;6.570;2023-03-14T03:37:30;98619.41;;;8.26;91.17
75221;BME280;63802;53.232;6.570;2023-03-14T03:39:56;98624.47;;;8.24;91.35
75221;BME280;63802;53.232;6.570;2023-03-14T03:42:21;98624.50;;;8.20;91.64
75221;BME280;63802;53.232;6.570;2023-03-14T03:44:50;98612.84;;;8.20;91.86
75221;BME280;63802;53.232;6.570;2023-03-14T03:47:15;98621.38;;;8.22;92.11
75221;BME280;63802;53.232;6.570;2023-03-14T03:49:47;98622.94;;;8.23;92.00
75221;BME280;63802;53.232;6.570;2023-03-14T03:52:12;98620.59;;;8.25;92.55
75221;BME280;63802;53.232;6.570;2023-03-14T03:54:37;98609.00;;;8.17;92.38
75221;BME280;63802;53.232;6.570;2023-03-14T03:57:03;98614.38;;;8.24;92.64
75221;BME280;63802;53.232;6.570;2023-03-14T03:59:28;98622.53;;;8.28;92.74
75221;BME280;63802;53.232;6.570;2023-03-14T04:01:54;98615.16;;;8.21;92.54
75221;BME280;63802;53.232;6.570;2023-03-14T04:04:19;98614.03;;;8.19;92.70
75221;BME280;63802;53.232;6.570;2023-03-14T04:06:45;98620.19;;;8.26;92.87
75221;BME280;63802;53.232;6.570;2023-03-14T04:09:11;98623.31;;;8.21;92.54
75221;BME280;63802;53.232;6.570;2023-03-14T04:11:36;98623.31;;;8.25;92.99
75221;BME280;63802;53.232;6.570;2023-03-14T04:14:03;98617.09;;;8.24;92.66
75221;BME280;63802;53.232;6.570;2023-03-14T04:16:29;98618.25;;;8.27;92.66
75221;BME280;63802;53.232;6.570;2023-03-14T04:18:57;98621.34;;;8.25;92.93
75221;BME280;63802;53.232;6.570;2023-03-14T04:21:22;98622.09;;;8.26;92.89
75221;BME280;63802;53.232;6.570;2023-03-14T04:23:48;98620.59;;;8.21;92.79
75221;BME280;63802;53.232;6.570;2023-03-14T04:26:14;98615.53;;;8.27;93.24
75221;BME280;63802;53.232;6.570;2023-03-14T04:28:40;98628.72;;;8.25;92.94
75221;BME280;63802;53.232;6.570;2023-03-14T04:31:18;98628.34;;;8.26;93.18
75221;BME280;63802;53.232;6.570;2023-03-14T04:33:45;98627.19;;;8.24;93.33
75221;BME280;63802;53.232;6.570;2023-03-14T04:36:10;98622.53;;;8.24;93.21
75221;BME280;63802;53.232;6.570;2023-03-14T04:38:36;98610.94;;;8.17;93.21
75221;BME280;63802;53.232;6.570;2023-03-14T04:41:01;98619.06;;;8.20;93.52
75221;BME280;63802;53.232;6.570;2023-03-14T04:43:27;98610.94;;;8.17;93.51
75221;BME280;63802;53.232;6.570;2023-03-14T04:45:54;98603.56;;;8.13;93.68
75221;BME280;63802;53.232;6.570;2023-03-14T04:48:19;98606.28;;;8.13;93.88
75221;BME280;63802;53.232;6.570;2023-03-14T04:50:46;98602.06;;;8.13;93.71
75221;BME280;63802;53.232;6.570;2023-03-14T04:53:16;98610.97;;;8.13;94.19
75221;BME280;63802;53.232;6.570;2023-03-14T04:55:41;98606.75;;;8.08;94.31
75221;BME280;63802;53.232;6.570;2023-03-14T04:58:07;98608.28;;;8.09;94.05
75221;BME280;63802;53.232;6.570;2023-03-14T05:00:32;98595.53;;;7.99;94.26
75221;BME280;63802;53.232;6.570;2023-03-14T05:02:58;98593.59;;;8.03;94.58
75221;BME280;63802;53.232;6.570;2023-03-14T05:05:27;98601.69;;;8.07;94.59
75221;BME280;63802;53.232;6.570;2023-03-14T05:07:52;98595.19;;;7.97;94.90
75221;BME280;63802;53.232;6.570;2023-03-14T05:10:17;98599.81;;;8.00;95.14
75221;BME280;63802;53.232;6.570;2023-03-14T05:12:43;98586.25;;;7.97;94.72
75221;BME280;63802;53.232;6.570;2023-03-14T05:15:08;98602.13;;;8.02;95.20
75221;BME280;63802;53.232;6.570;2023-03-14T05:17:34;98595.16;;;8.01;94.98
75221;BME280;63802;53.232;6.570;2023-03-14T05:20:00;98562.69;;;7.83;94.95
75221;BME280;63802;53.232;6.570;2023-03-14T05:22:25;98596.72;;;7.98;95.42
75221;BME280;63802;53.232;6.570;2023-03-14T05:24:51;98564.25;;;7.84;95.34
75221;BME280;63802;53.232;6.570;2023-03-14T05:27:21;98600.59;;;7.97;95.56
75221;BME280;63802;53.232;6.570;2023-03-14T05:29:47;98602.19;;;7.95;95.52
75221;BME280;63802;53.232;6.570;2023-03-14T05:32:12;98594.06;;;7.91;95.80
75221;BME280;63802;53.232;6.570;2023-03-14T05:34:38;98586.31;;;7.90;95.58
75221;BME280;63802;53.232;6.570;2023-03-14T05:37:03;98589.78;;;7.90;95.59
75221;BME280;63802;53.232;6.570;2023-03-14T05:39:28;98586.34;;;7.86;95.82
75221;BME280;63802;53.232;6.570;2023-03-14T05:41:54;98589.03;;;7.90;95.89
75221;BME280;63802;53.232;6.570;2023-03-14T05:44:21;98592.91;;;7.89;96.14
75221;BME280;63802;53.232;6.570;2023-03-14T05:46:46;98596.78;;;7.88;95.77
75221;BME280;63802;53.232;6.570;2023-03-14T05:49:12;98569.75;;;7.77;96.16
75221;BME280;63802;53.232;6.570;2023-03-14T05:51:37;98569.75;;;7.74;95.94
75221;BME280;63802;53.232;6.570;2023-03-14T05:54:02;98586.03;;;7.77;96.17
75221;BME280;63802;53.232;6.570;2023-03-14T05:56:28;98601.44;;;7.87;96.43
75221;BME280;63802;53.232;6.570;2023-03-14T05:58:53;98587.19;;;7.76;96.41
75221;BME280;63802;53.232;6.570;2023-03-14T06:01:19;98586.41;;;7.79;96.21
75221;BME280;63802;53.232;6.570;2023-03-14T06:03:44;98593.72;;;7.82;96.30
75221;BME280;63802;53.232;6.570;2023-03-14T06:06:09;98590.69;;;7.73;96.16
75221;BME280;63802;53.232;6.570;2023-03-14T06:08:35;98611.56;;;7.83;96.36
75221;BME280;63802;53.232;6.570;2023-03-14T06:11:03;98605.00;;;7.81;96.61
75221;BME280;63802;53.232;6.570;2023-03-14T06:13:28;98600.72;;;7.83;96.51
75221;BME280;63802;53.232;6.570;2023-03-14T06:15:53;98588.38;;;7.68;96.60
75221;BME280;63802;53.232;6.570;2023-03-14T06:18:19;98620.09;;;7.85;96.75
75221;BME280;63802;53.232;6.570;2023-03-14T06:20:45;98612.78;;;7.75;96.33
75221;BME280;63802;53.232;6.570;2023-03-14T06:23:11;98625.56;;;7.78;96.48
75221;BME280;63802;53.232;6.570;2023-03-14T06:25:36;98630.63;;;7.73;96.70
75221;BME280;63802;53.232;6.570;2023-03-14T06:28:02;98651.41;;;7.21;96.23
75221;BME280;63802;53.232;6.570;2023-03-14T06:30:28;98690.56;;;7.16;96.44
75221;BME280;63802;53.232;6.570;2023-03-14T06:32:53;98705.75;;;6.79;96.14
75221;BME280;63802;53.232;6.570;2023-03-14T06:35:21;98711.16;;;6.50;96.47
75221;BME280;63802;53.232;6.570;2023-03-14T06:37:47;98719.66;;;6.28;96.04
75221;BME280;63802;53.232;6.570;2023-03-14T06:40:12;98725.41;;;6.19;96.07
75221;BME280;63802;53.232;6.570;2023-03-14T06:42:42;98745.91;;;6.13;96.08
75221;BME280;63802;53.232;6.570;2023-03-14T06:45:08;98754.78;;;5.92;96.18
75221;BME280;63802;53.232;6.570;2023-03-14T06:47:34;98772.84;;;5.78;96.34
75221;BME280;63802;53.232;6.570;2023-03-14T06:50:00;98789.34;;;5.52;96.33
75221;BME280;63802;53.232;6.570;2023-03-14T06:52:25;98803.41;;;5.17;95.87
75221;BME280;63802;53.232;6.570;2023-03-14T06:54:50;98802.13;;;5.00;95.92
75221;BME280;63802;53.232;6.570;2023-03-14T06:57:16;98821.53;;;4.69;96.31
75221;BME280;63802;53.232;6.570;2023-03-14T06:59:41;98832.13;;;4.48;96.32
75221;BME280;63802;53.232;6.570;2023-03-14T07:02:11;98820.81;;;4.35;96.00
75221;BME280;63802;53.232;6.570;2023-03-14T07:04:40;98828.75;;;4.21;96.23
75221;BME280;63802;53.232;6.570;2023-03-14T07:07:06;98856.53;;;4.22;96.05
75221;BME280;63802;53.232;6.570;2023-03-14T07:09:32;98870.59;;;4.04;96.05
75221;BME280;63802;53.232;6.570;2023-03-14T07:11:57;98897.88;;;3.99;96.11
75221;BME280;63802;53.232;6.570;2023-03-14T07:14:23;98887.72;;;3.89;96.30
75221;BME280;63802;53.232;6.570;2023-03-14T07:16:48;98907.53;;;3.74;96.16
75221;BME280;63802;53.232;6.570;2023-03-14T07:19:14;98919.63;;;3.58;96.03
75221;BME280;63802;53.232;6.570;2023-03-14T07:21:40;98925.59;;;3.44;96.23
75221;BME280;63802;53.232;6.570;2023-03-14T07:24:05;98956.50;;;3.50;96.17
75221;BME280;63802;53.232;6.570;2023-03-14T07:26:30;98965.19;;;3.40;96.16
75221;BME280;63802;53.232;6.570;2023-03-14T07:28:56;98977.88;;;3.39;95.88
75221;BME280;63802;53.232;6.570;2023-03-14T07:31:22;98984.78;;;3.37;95.77
75221;BME280;63802;53.232;6.570;2023-03-14T07:33:48;98982.25;;;3.25;96.00
75221;BME280;63802;53.232;6.570;2023-03-14T07:36:13;99007.03;;;3.34;95.85
75221;BME280;63802;53.232;6.570;2023-03-14T07:38:39;99017.13;;;3.37;95.87
75221;BME280;63802;53.232;6.570;2023-03-14T07:41:06;99018.56;;;3.31;95.81
75221;BME280;63802;53.232;6.570;2023-03-14T07:43:32;99013.59;;;3.33;95.97
75221;BME280;63802;53.232;6.570;2023-03-14T07:45:58;99034.28;;;3.29;95.81
75221;BME280;63802;53.232;6.570;2023-03-14T07:48:24;99045.19;;;3.36;95.94
75221;BME280;63802;53.232;6.570;2023-03-14T07:50:52;99038.97;;;3.32;95.96
75221;BME280;63802;53.232;6.570;2023-03-14T07:53:18;99066.19;;;3.46;96.17
75221;BME280;63802;53.232;6.570;2023-03-14T07:55:44;99068.81;;;3.43;96.04
75221;BME280;63802;53.232;6.570;2023-03-14T07:58:10;99085.69;;;3.39;96.17
75221;BME280;63802;53.232;6.570;2023-03-14T08:00:35;99094.28;;;3.45;95.89
75221;BME280;63802;53.232;6.570;2023-03-14T08:03:01;99090.44;;;3.46;95.85
75221;BME280;63802;53.232;6.570;2023-03-14T08:05:26;99112.22;;;3.57;95.92
75221;BME280;63802;53.232;6.570;2023-03-14T08:07:51;99095.25;;;3.56;95.95
75221;BME280;63802;53.232;6.570;2023-03-14T08:10:17;99114.63;;;3.62;95.87
75221;BME280;63802;53.232;6.570;2023-03-14T08:12:49;99143.22;;;3.66;95.88
75221;BME280;63802;53.232;6.570;2023-03-14T08:15:15;99129.84;;;3.73;95.66
75221;BME280;63802;53.232;6.570;2023-03-14T08:17:40;99141.25;;;3.86;95.93
75221;BME280;63802;53.232;6.570;2023-03-14T08:20:06;99146.13;;;3.99;95.73
75221;BME280;63802;53.232;6.570;2023-03-14T08:22:33;99156.19;;;4.02;95.78
75221;BME280;63802;53.232;6.570;2023-03-14T08:24:59;99169.44;;;4.11;95.69
75221;BME280;63802;53.232;6.570;2023-03-14T08:27:24;99186.97;;;4.21;95.37
75221;BME280;63802;53.232;6.570;2023-03-14T08:29:50;99186.63;;;4.22;95.35
75221;BME280;63802;53.232;6.570;2023-03-14T08:32:16;99199.44;;;4.29;95.28
75221;BME280;63802;53.232;6.570;2023-03-14T08:34:41;99197.56;;;4.33;95.07
75221;BME280;63802;53.232;6.570;2023-03-14T08:37:07;99216.06;;;4.31;95.14
75221;BME280;63802;53.232;6.570;2023-03-14T08:39:32;99205.25;;;4.31;95.16
75221;BME280;63802;53.232;6.570;2023-03-14T08:41:58;99215.59;;;4.48;95.19
75221;BME280;63802;53.232;6.570;2023-03-14T08:44:23;99223.59;;;4.67;94.63
75221;BME280;63802;53.232;6.570;2023-03-14T08:46:49;99233.44;;;4.56;94.57
75221;BME280;63802;53.232;6.570;2023-03-14T08:49:14;99229.31;;;4.62;93.96
75221;BME280;63802;53.232;6.570;2023-03-14T08:51:40;99243.34;;;4.71;94.01
75221;BME280;63802;53.232;6.570;2023-03-14T08:54:05;99258.53;;;4.79;93.96
75221;BME280;63802;53.232;6.570;2023-03-14T08:56:31;99260.16;;;4.84;93.90
75221;BME280;63802;53.232;6.570;2023-03-14T08:58:56;99275.56;;;4.83;93.31
75221;BME280;63802;53.232;6.570;2023-03-14T09:01:22;99267.59;;;4.90;93.50
75221;BME280;63802;53.232;6.570;2023-03-14T09:03:50;99270.38;;;4.97;93.10
75221;BME280;63802;53.232;6.570;2023-03-14T09:06:16;99296.50;;;5.12;92.94
75221;BME280;63802;53.232;6.570;2023-03-14T09:08:44;99302.03;;;5.19;92.41
75221;BME280;63802;53.232;6.570;2023-03-14T09:11:10;99306.28;;;5.20;91.83
75221;BME280;63802;53.232;6.570;2023-03-14T09:13:36;99308.25;;;5.23;91.72
75221;BME280;63802;53.232;6.570;2023-03-14T09:16:01;99316.53;;;5.60;91.32
75221;BME280;63802;53.232;6.570;2023-03-14T09:18:27;99329.25;;;5.86;90.97
75221;BME280;63802;53.232;6.570;2023-03-14T09:20:52;99329.56;;;5.55;90.00
75221;BME280;63802;53.232;6.570;2023-03-14T09:23:18;99362.31;;;5.46;89.21
75221;BME280;63802;53.232;6.570;2023-03-14T09:25:43;99373.06;;;5.42;89.03
75221;BME280;63802;53.232;6.570;2023-03-14T09:28:08;99379.97;;;5.40;88.58
75221;BME280;63802;53.232;6.570;2023-03-14T09:30:34;99385.38;;;5.40;87.34
75221;BME280;63802;53.232;6.570;2023-03-14T09:32:59;99391.78;;;5.28;86.61
75221;BME280;63802;53.232;6.570;2023-03-14T09:35:25;99398.63;;;5.22;86.72
75221;BME280;63802;53.232;6.570;2023-03-14T09:37:51;99414.06;;;4.99;85.65
75221;BME280;63802;53.232;6.570;2023-03-14T09:40:18;99423.03;;;5.03;84.86
75221;BME280;63802;53.232;6.570;2023-03-14T09:42:50;99429.94;;;5.01;84.31
75221;BME280;63802;53.232;6.570;2023-03-14T09:45:46;99440.91;;;5.11;84.19
75221;BME280;63802;53.232;6.570;2023-03-14T09:48:20;99444.47;;;5.15;83.65
75221;BME280;63802;53.232;6.570;2023-03-14T09:50:49;99452.31;;;5.20;82.21
75221;BME280;63802;53.232;6.570;2023-03-14T09:53:21;99468.28;;;5.29;81.49
75221;BME280;63802;53.232;6.570;2023-03-14T09:55:50;99472.47;;;5.26;81.43
75221;BME280;63802;53.232;6.570;2023-03-14T09:58:19;99477.34;;;5.17;81.33
75221;BME280;63802;53.232;6.570;2023-03-14T10:00:46;99492.94;;;5.05;81.66
75221;BME280;63802;53.232;6.570;2023-03-14T10:05:38;99517.63;;;5.03;81.11
75221;BME280;63802;53.232;6.570;2023-03-14T10:08:05;99530.63;;;5.17;80.88
75221;BME280;63802;53.232;6.570;2023-03-14T10:10:31;99514.19;;;5.06;79.96
75221;BME280;63802;53.232;6.570;2023-03-14T10:12:59;99531.19;;;5.26;80.26
75221;BME280;63802;53.232;6.570;2023-03-14T10:15:32;99554.88;;;5.32;79.04
75221;BME280;63802;53.232;6.570;2023-03-14T10:18:01;99556.84;;;5.35;78.71
75221;BME280;63802;53.232;6.570;2023-03-14T10:20:37;99575.00;;;5.54;77.97
75221;BME280;63802;53.232;6.570;2023-03-14T10:23:06;99577.00;;;5.80;78.21
75221;BME280;63802;53.232;6.570;2023-03-14T10:25:34;99570.75;;;5.76;77.54
75221;BME280;63802;53.232;6.570;2023-03-14T10:28:01;99610.69;;;5.82;76.57
75221;BME280;63802;53.232;6.570;2023-03-14T10:30:44;99613.63;;;5.55;75.24
75221;BME280;63802;53.232;6.570;2023-03-14T10:33:31;99617.69;;;5.64;74.31
75221;BME280;63802;53.232;6.570;2023-03-14T10:36:00;99622.75;;;5.66;74.22
75221;BME280;63802;53.232;6.570;2023-03-14T10:38:31;99622.41;;;5.48;72.50
75221;BME280;63802;53.232;6.570;2023-03-14T10:40:57;99635.88;;;5.45;71.35
75221;BME280;63802;53.232;6.570;2023-03-14T10:43:31;99633.28;;;5.71;70.99
75221;BME280;63802;53.232;6.570;2023-03-14T10:46:05;99657.69;;;6.39;71.81
75221;BME280;63802;53.232;6.570;2023-03-14T10:48:32;99664.13;;;6.53;69.99
75221;BME280;63802;53.232;6.570;2023-03-14T10:51:09;99673.81;;;6.32;69.85
75221;BME280;63802;53.232;6.570;2023-03-14T10:53:47;99681.09;;;6.05;71.04
75221;BME280;63802;53.232;6.570;2023-03-14T10:56:21;99688.38;;;5.82;69.37
75221;BME280;63802;53.232;6.570;2023-03-14T10:58:49;99682.69;;;6.06;68.16
75221;BME280;63802;53.232;6.570;2023-03-14T11:01:41;99711.81;;;6.35;67.98
75221;BME280;63802;53.232;6.570;2023-03-14T11:06:56;99729.13;;;5.70;66.66
75221;BME280;63802;53.232;6.570;2023-03-14T11:14:59;99750.75;;;6.95;65.15
75221;BME280;63802;53.232;6.570;2023-03-14T11:20:55;99817.25;;;6.44;63.71
75221;BME280;63802;53.232;6.570;2023-03-14T11:23:30;99788.28;;;5.87;63.04
75221;BME280;63802;53.232;6.570;2023-03-14T11:26:16;99799.34;;;6.39;63.54
75221;BME280;63802;53.232;6.570;2023-03-14T11:28:58;99785.16;;;6.68;60.96
75221;BME280;63802;53.232;6.570;2023-03-14T11:31:29;99813.88;;;6.08;60.20
75221;BME280;63802;53.232;6.570;2023-03-14T11:36:39;99805.16;;;6.60;59.09
75221;BME280;63802;53.232;6.570;2023-03-14T11:39:12;99811.97;;;6.73;59.65
75221;BME280;63802;53.232;6.570;2023-03-14T11:41:41;99833.00;;;7.03;58.54
75221;BME280;63802;53.232;6.570;2023-03-14T11:44:36;99859.47;;;7.09;57.10
75221;BME280;63802;53.232;6.570;2023-03-14T11:47:08;99862.72;;;6.54;58.03
75221;BME280;63802;53.232;6.570;2023-03-14T11:49:42;99874.22;;;6.09;58.88
75221;BME280;63802;53.232;6.570;2023-03-14T11:52:47;99861.03;;;6.27;60.37
75221;BME280;63802;53.232;6.570;2023-03-14T11:55:17;99879.47;;;6.79;58.33
75221;BME280;63802;53.232;6.570;2023-03-14T11:57:44;99875.63;;;6.60;58.54
75221;BME280;63802;53.232;6.570;2023-03-14T12:00:18;99883.91;;;6.48;58.30
75221;BME280;63802;53.232;6.570;2023-03-14T12:05:37;99904.31;;;6.23;58.96
75221;BME280;63802;53.232;6.570;2023-03-14T12:10:44;99915.16;;;6.61;60.11
75221;BME280;63802;53.232;6.570;2023-03-14T12:13:12;99910.56;;;6.27;59.80
75221;BME280;63802;53.232;6.570;2023-03-14T12:15:41;99899.78;;;5.92;61.32
75221;BME280;63802;53.232;6.570;2023-03-14T12:18:34;99936.91;;;5.92;61.70
75221;BME280;63802;53.232;6.570;2023-03-14T12:21:02;99944.03;;;6.00;61.97
75221;BME280;63802;53.232;6.570;2023-03-14T12:26:15;99959.25;;;5.89;62.52
75221;BME280;63802;53.232;6.570;2023-03-14T12:29:09;99961.00;;;5.97;63.60
75221;BME280;63802;53.232;6.570;2023-03-14T12:32:19;99973.38;;;5.98;63.35
75221;BME280;63802;53.232;6.570;2023-03-14T12:34:44;99964.91;;;5.84;63.51
75221;BME280;63802;53.232;6.570;2023-03-14T12:37:29;99956.19;;;5.59;64.76
75221;BME280;63802;53.232;6.570;2023-03-14T12:40:17;99959.09;;;5.66;65.44
75221;BME280;63802;53.232;6.570;2023-03-14T12:42:57;99983.00;;;5.80;64.94
75221;BME280;63802;53.232;6.570;2023-03-14T12:45:35;99993.47;;;5.81;63.36
75221;BME280;63802;53.232;6.570;2023-03-14T12:48:10;100005.34;;;5.77;62.91
75221;BME280;63802;53.232;6.570;2023-03-14T12:50:42;100020.13;;;5.64;61.72
75221;BME280;63802;53.232;6.570;2023-03-14T13:04:46;100024.13;;;5.70;59.17
75221;BME280;63802;53.232;6.570;2023-03-14T13:12:51;100047.97;;;6.81;55.09
75221;BME280;63802;53.232;6.570;2023-03-14T13:15:35;100034.16;;;6.51;55.52
75221;BME280;63802;53.232;6.570;2023-03-14T13:20:38;100071.22;;;6.82;56.38
75221;BME280;63802;53.232;6.570;2023-03-14T13:23:17;100088.63;;;6.61;55.98
75221;BME280;63802;53.232;6.570;2023-03-14T13:25:44;100077.47;;;6.47;56.12
75221;BME280;63802;53.232;6.570;2023-03-14T13:28:10;100077.69;;;6.23;56.67
75221;BME280;63802;53.232;6.570;2023-03-14T13:30:41;100106.59;;;6.19;56.54
75221;BME280;63802;53.232;6.570;2023-03-14T13:33:15;100116.00;;;6.56;56.72
75221;BME280;63802;53.232;6.570;2023-03-14T13:35:44;100109.34;;;6.89;55.98
75221;BME280;63802;53.232;6.570;2023-03-14T13:38:22;100114.44;;;6.90;55.86
75221;BME280;63802;53.232;6.570;2023-03-14T13:40:54;100127.31;;;7.31;55.54
75221;BME280;63802;53.232;6.570;2023-03-14T13:43:36;100108.78;;;6.99;55.14
75221;BME280;63802;53.232;6.570;2023-03-14T13:46:12;100134.25;;;7.29;55.95
75221;BME280;63802;53.232;6.570;2023-03-14T13:48:44;100134.94;;;7.45;55.65
75221;BME280;63802;53.232;6.570;2023-03-14T13:51:14;100135.50;;;7.16;54.64
75221;BME280;63802;53.232;6.570;2023-03-14T13:53:46;100110.72;;;6.63;55.46
75221;BME280;63802;53.232;6.570;2023-03-14T13:56:15;100143.63;;;6.46;55.53
75221;BME280;63802;53.232;6.570;2023-03-14T13:58:41;100142.19;;;6.68;56.16
75221;BME280;63802;53.232;6.570;2023-03-14T14:01:15;100164.19;;;6.47;56.76
75221;BME280;63802;53.232;6.570;2023-03-14T14:03:44;100180.28;;;6.40;56.84